Time;durP1;ratioP1;P1;durP2;ratioP2;P2;SDS_P1;SDS_P2;PMS_P1;PMS_P2;Temp;Humidity;BMP_temperature;BMP_pressure;BME280_temperature;BME280_humidity;BME280_pressure;Samples;Min_cycle;Max_cycle;Signal;HPM_P1;HPM_P2
2021/12/06 00:02:25;;;;;;;95.07;75.57;;;21.60;44.40;;;;;;4800511;54;21465;-29
2021/12/06 00:07:26;;;;;;;93.53;75.18;;;21.60;44.30;;;;;;4794811;58;21075;-31
2021/12/06 00:12:27;;;;;;;95.35;76.22;;;21.60;44.40;;;;;;4801818;54;21477;-28
2021/12/06 00:17:28;;;;;;;89.30;73.43;;;21.60;44.40;;;;;;4802678;54;21008;-28
2021/12/06 00:22:28;;;;;;;94.30;75.95;;;21.60;44.30;;;;;;4803542;54;20984;-32
2021/12/06 00:27:29;;;;;;;86.65;72.80;;;21.60;44.90;;;;;;4796996;54;21462;-32
2021/12/06 00:32:30;;;;;;;90.25;73.70;;;21.50;44.30;;;;;;4804489;54;21035;-30
2021/12/06 00:37:41;;;;;;;88.30;71.50;;;21.60;44.40;;;;;;4819359;54;21031;-32
2021/12/06 00:42:42;;;;;;;85.95;70.30;;;21.60;44.40;;;;;;4798889;54;21446;-25
2021/12/06 00:47:42;;;;;;;90.10;72.47;;;21.60;44.30;;;;;;4830937;54;21008;-26
2021/12/06 00:52:45;;;;;;;88.50;70.68;;;21.50;44.30;;;;;;4796778;54;21008;-28
2021/12/06 00:57:48;;;;;;;83.35;66.18;;;21.60;44.30;;;;;;4794962;58;21553;-28
2021/12/06 01:02:50;;;;;;;85.30;68.10;;;21.60;44.40;;;;;;4829340;54;21080;-26
2021/12/06 01:07:54;;;;;;;87.68;70.62;;;21.60;44.40;;;;;;4816835;54;21015;-35
2021/12/06 01:12:56;;;;;;;86.32;69.15;;;21.60;44.40;;;;;;4828461;54;21462;-30
2021/12/06 01:17:59;;;;;;;87.95;70.07;;;21.50;44.30;;;;;;4851711;54;21048;-32
2021/12/06 01:23:04;;;;;;;84.28;65.72;;;21.60;44.40;;;;;;4799854;54;21429;-32
2021/12/06 01:28:34;;;;;;;83.35;68.78;;;21.60;44.30;;;;;;4795389;58;21079;-33
2021/12/06 01:39:10;;;;;;;83.22;66.62;;;21.60;44.20;;;;;;4809511;54;21498;-31
2021/12/06 01:44:25;;;;;;;84.50;68.10;;;21.60;44.30;;;;;;4822154;54;21526;-25
2021/12/06 01:49:33;;;;;;;82.62;66.15;;;21.50;44.30;;;;;;4841975;54;21056;-30
2021/12/06 01:54:33;;;;;;;80.95;64.78;;;21.50;44.30;;;;;;4901241;54;21063;-29
2021/12/06 01:59:35;;;;;;;83.15;65.90;;;21.50;44.30;;;;;;4808270;54;21016;-28
2021/12/06 02:04:39;;;;;;;82.72;66.05;;;21.50;44.30;;;;;;4819690;54;21059;-29
2021/12/06 02:09:40;;;;;;;78.50;65.00;;;21.50;44.30;;;;;;4829423;54;21052;-32
2021/12/06 02:20:20;;;;;;;78.03;62.03;;;21.50;44.20;;;;;;4794666;58;21585;-26
2021/12/06 02:25:22;;;;;;;78.32;63.35;;;21.50;44.30;;;;;;4808390;54;21517;-28
2021/12/06 02:30:23;;;;;;;80.12;62.60;;;21.50;44.80;;;;;;4810143;54;21027;-30
2021/12/06 02:35:24;;;;;;;78.72;62.47;;;21.50;44.20;;;;;;4821145;54;21052;-35
2021/12/06 02:40:30;;;;;;;77.25;61.92;;;21.50;44.30;;;;;;4829253;54;21497;-32
2021/12/06 02:45:50;;;;;;;78.57;62.00;;;21.50;44.20;;;;;;4818904;54;21091;-29
2021/12/06 02:50:53;;;;;;;78.22;62.35;;;21.50;44.20;;;;;;4820824;54;21383;-33
2021/12/06 02:55:58;;;;;;;77.37;61.92;;;21.40;44.30;;;;;;4807537;54;21047;-32
2021/12/06 03:01:02;;;;;;;77.55;61.78;;;21.40;44.40;;;;;;4795039;58;21570;-30
2021/12/06 03:06:04;;;;;;;75.65;60.08;;;21.40;44.30;;;;;;4800881;54;21113;-36
2021/12/06 03:11:12;;;;;;;74.80;59.72;;;21.40;44.30;;;;;;4800201;54;20984;-26
2021/12/06 03:16:13;;;;;;;74.65;58.70;;;21.40;44.30;;;;;;4794979;58;21004;-27
2021/12/06 03:21:17;;;;;;;75.62;59.78;;;21.40;44.30;;;;;;4843796;54;21000;-31
2021/12/06 03:26:17;;;;;;;74.25;60.05;;;21.50;44.40;;;;;;4829359;54;21000;-26
2021/12/06 03:31:19;;;;;;;73.60;58.35;;;21.50;44.30;;;;;;4797247;54;21490;-27
2021/12/06 03:36:23;;;;;;;73.70;57.95;;;21.50;44.30;;;;;;4809370;54;21044;-28
2021/12/06 03:41:27;;;;;;;73.55;57.22;;;21.40;44.30;;;;;;4831293;54;21067;-28
2021/12/06 03:46:31;;;;;;;75.12;57.75;;;21.50;44.40;;;;;;4796743;54;21080;-35
2021/12/06 03:51:32;;;;;;;69.20;55.38;;;21.50;44.20;;;;;;4800467;54;21087;-25
2021/12/06 03:56:36;;;;;;;71.18;56.45;;;21.50;44.20;;;;;;4795550;58;21117;-29
2021/12/06 04:01:39;;;;;;;71.12;56.55;;;21.50;44.20;;;;;;4804024;54;21115;-35
2021/12/06 04:06:41;;;;;;;72.10;55.33;;;21.50;44.20;;;;;;4796657;54;21518;-33
2021/12/06 04:11:43;;;;;;;68.25;54.17;;;21.50;44.20;;;;;;4808053;54;21039;-26
2021/12/06 04:16:45;;;;;;;70.07;54.40;;;21.50;44.20;;;;;;4824543;54;21024;-26
2021/12/06 04:21:47;;;;;;;62.35;51.15;;;21.50;44.20;;;;;;4815349;54;21096;-25
2021/12/06 04:26:49;;;;;;;67.47;53.17;;;21.50;44.20;;;;;;4830118;54;21067;-31
2021/12/06 04:31:53;;;;;;;66.12;53.00;;;21.40;44.20;;;;;;4809255;54;21370;-26
2021/12/06 04:36:54;;;;;;;68.93;52.70;;;21.50;44.10;;;;;;4822779;54;21549;-31
2021/12/06 04:41:54;;;;;;;62.88;49.40;;;21.50;44.20;;;;;;4856360;54;21036;-30
2021/12/06 04:46:56;;;;;;;67.05;53.10;;;21.50;44.20;;;;;;4812044;54;21033;-27
2021/12/06 04:52:00;;;;;;;65.28;51.95;;;21.40;44.20;;;;;;4799202;54;21028;-32
2021/12/06 04:57:13;;;;;;;61.75;50.50;;;21.50;44.20;;;;;;4805860;54;21059;-33
2021/12/06 05:02:19;;;;;;;61.85;48.47;;;21.50;44.30;;;;;;4803852;54;21110;-26
2021/12/06 05:07:25;;;;;;;62.70;48.97;;;21.50;44.30;;;;;;4854305;54;21158;-35
2021/12/06 05:12:29;;;;;;;60.42;48.42;;;21.50;44.30;;;;;;4804814;54;21000;-32
2021/12/06 05:17:30;;;;;;;60.50;47.92;;;21.50;45.10;;;;;;4818990;54;21064;-28
2021/12/06 05:22:32;;;;;;;59.25;47.53;;;21.50;44.40;;;;;;4831344;54;21012;-25
2021/12/06 05:27:33;;;;;;;59.75;47.65;;;21.50;44.40;;;;;;4825774;54;21067;-25
2021/12/06 05:32:35;;;;;;;58.45;47.35;;;21.40;44.50;;;;;;4825592;54;21092;-26
2021/12/06 05:37:45;;;;;;;58.65;47.28;;;21.40;44.40;;;;;;4794564;58;21509;-34
2021/12/06 05:42:47;;;;;;;56.90;45.33;;;21.50;44.50;;;;;;4809055;54;21067;-31
2021/12/06 05:47:48;;;;;;;55.85;45.65;;;21.40;44.60;;;;;;4800227;54;21032;-28
2021/12/06 05:52:52;;;;;;;57.28;44.63;;;21.50;44.80;;;;;;4847658;54;20996;-29
2021/12/06 05:58:00;;;;;;;54.75;44.15;;;21.50;44.70;;;;;;4820781;54;20999;-26
2021/12/06 06:03:03;;;;;;;56.65;44.70;;;21.40;44.80;;;;;;4795427;58;21540;-26
2021/12/06 06:08:05;;;;;;;53.17;43.80;;;21.50;44.80;;;;;;4809135;54;21007;-26
2021/12/06 06:13:07;;;;;;;54.50;43.85;;;21.40;44.80;;;;;;4795126;58;21046;-29
2021/12/06 06:18:10;;;;;;;53.30;43.28;;;21.50;44.90;;;;;;4818911;54;21063;-26
2021/12/06 06:23:11;;;;;;;51.75;42.38;;;21.40;44.90;;;;;;4824864;54;20996;-29
2021/12/06 06:28:12;;;;;;;48.75;39.38;;;21.40;44.90;;;;;;4795058;58;21008;-34
2021/12/06 06:33:13;;;;;;;51.17;41.15;;;21.40;44.90;;;;;;4819551;54;21404;-31
2021/12/06 06:38:15;;;;;;;50.88;41.50;;;21.40;44.90;;;;;;4876826;54;21107;-27
2021/12/06 06:43:17;;;;;;;50.08;40.22;;;21.40;44.90;;;;;;4802011;54;21533;-28
2021/12/06 06:48:17;;;;;;;47.47;39.00;;;21.40;45.00;;;;;;4824193;54;21052;-28
2021/12/06 06:53:18;;;;;;;50.12;39.97;;;21.40;44.90;;;;;;4828035;54;21078;-27
2021/12/06 06:58:20;;;;;;;48.63;38.53;;;21.40;45.00;;;;;;4809604;54;21084;-32
2021/12/06 07:03:21;;;;;;;46.58;38.35;;;21.40;44.90;;;;;;4808676;54;21004;-32
2021/12/06 07:08:22;;;;;;;49.58;40.00;;;21.40;44.90;;;;;;4813879;54;21055;-24
2021/12/06 07:13:27;;;;;;;50.28;38.95;;;21.40;44.90;;;;;;4801456;54;21155;-30
2021/12/06 07:18:27;;;;;;;48.00;39.13;;;21.40;44.90;;;;;;4822683;54;21008;-25
2021/12/06 07:23:28;;;;;;;50.38;39.80;;;21.40;44.90;;;;;;4797289;54;21008;-29
2021/12/06 07:28:29;;;;;;;50.05;39.65;;;21.40;44.90;;;;;;4797552;54;21008;-29
2021/12/06 07:33:30;;;;;;;47.70;38.28;;;21.40;44.90;;;;;;4823558;54;21092;-25
2021/12/06 07:38:34;;;;;;;49.85;39.50;;;21.40;44.90;;;;;;4823869;54;21501;-30
2021/12/06 07:43:36;;;;;;;46.20;38.08;;;21.40;44.90;;;;;;4824310;54;21068;-27
2021/12/06 07:48:37;;;;;;;49.72;39.83;;;21.40;44.90;;;;;;4816968;54;21047;-26
2021/12/06 07:53:39;;;;;;;48.63;39.55;;;21.40;44.90;;;;;;4820413;54;21023;-25
2021/12/06 07:58:41;;;;;;;47.40;39.67;;;21.40;44.90;;;;;;4817577;54;22003;-28
2021/12/06 08:03:43;;;;;;;48.97;40.12;;;21.40;44.90;;;;;;4839014;54;21601;-26
2021/12/06 08:08:44;;;;;;;50.83;40.38;;;21.40;44.90;;;;;;4800331;54;21091;-28
2021/12/06 08:13:50;;;;;;;48.20;38.40;;;21.40;44.90;;;;;;4814692;54;21580;-25
2021/12/06 08:18:52;;;;;;;51.22;39.67;;;21.40;45.00;;;;;;4825928;54;21482;-29
2021/12/06 08:23:55;;;;;;;51.55;41.20;;;21.50;45.50;;;;;;4805493;54;21461;-33
2021/12/06 08:28:57;;;;;;;51.05;41.10;;;21.50;45.70;;;;;;4794999;58;21007;-29
2021/12/06 08:33:58;;;;;;;50.85;41.88;;;21.50;46.10;;;;;;4808372;54;21104;-25
2021/12/06 08:39:00;;;;;;;52.97;42.72;;;21.60;46.30;;;;;;4799775;54;21080;-32
2021/12/06 08:44:03;;;;;;;53.97;44.05;;;21.70;46.60;;;;;;4801991;54;21000;-26
2021/12/06 08:49:05;;;;;;;54.42;44.15;;;21.70;46.80;;;;;;4796709;54;21043;-30
2021/12/06 08:54:08;;;;;;;53.40;43.83;;;21.70;47.00;;;;;;4815195;54;21506;-32
2021/12/06 08:59:11;;;;;;;58.87;46.88;;;21.70;47.00;;;;;;4818922;54;21019;-27
2021/12/06 09:04:12;;;;;;;62.67;46.97;;;21.80;47.30;;;;;;4795079;55;21019;-28
2021/12/06 09:09:14;;;;;;;61.33;47.33;;;21.80;47.40;;;;;;4819956;54;21529;-28
2021/12/06 09:14:17;;;;;;;59.80;48.00;;;21.90;47.60;;;;;;4809726;54;21489;-28
2021/12/06 09:19:18;;;;;;;58.22;47.45;;;21.90;47.70;;;;;;4815858;54;21020;-27
2021/12/06 09:24:20;;;;;;;64.40;51.03;;;22.00;47.90;;;;;;4795344;54;22308;-31
2021/12/06 09:29:24;;;;;;;62.08;48.20;;;22.00;48.00;;;;;;4813465;54;21055;-26
2021/12/06 09:34:26;;;;;;;70.10;54.63;;;22.00;48.10;;;;;;4811854;54;21497;-30
2021/12/06 09:39:27;;;;;;;71.75;57.25;;;22.00;48.10;;;;;;4811515;54;21111;-27
2021/12/06 09:44:28;;;;;;;73.43;57.03;;;22.10;48.30;;;;;;4807000;54;21011;-31
2021/12/06 09:49:29;;;;;;;73.12;60.10;;;22.10;48.30;;;;;;4804678;54;21011;-26
2021/12/06 09:54:34;;;;;;;74.60;59.40;;;22.10;48.40;;;;;;4805834;54;21099;-33
2021/12/06 09:59:37;;;;;;;73.10;60.35;;;22.10;48.50;;;;;;4835603;54;21502;-30
2021/12/06 10:04:44;;;;;;;79.37;63.38;;;22.10;48.50;;;;;;4794612;54;21498;-27
2021/12/06 10:09:49;;;;;;;82.37;64.43;;;22.20;48.70;;;;;;4795139;58;21981;-27
2021/12/06 10:14:50;;;;;;;118.35;65.65;;;22.20;48.50;;;;;;4804727;54;21020;-30
2021/12/06 10:19:52;;;;;;;107.03;67.50;;;22.20;49.00;;;;;;4828556;54;20996;-25
2021/12/06 10:24:55;;;;;;;115.03;70.55;;;22.20;48.80;;;;;;4807130;54;21464;-28
2021/12/06 10:30:02;;;;;;;116.25;73.40;;;22.10;48.70;;;;;;4801664;54;21474;-30
2021/12/06 10:35:07;;;;;;;107.73;72.97;;;22.10;48.60;;;;;;4820748;54;21526;-26
2021/12/06 10:40:11;;;;;;;109.78;74.15;;;22.10;48.50;;;;;;4813124;54;21337;-30
2021/12/06 10:45:25;;;;;;;109.82;75.20;;;22.20;48.70;;;;;;4809479;54;22277;-27
2021/12/06 10:50:26;;;;;;;108.85;79.57;;;22.20;48.70;;;;;;4794458;58;21162;-27
2021/12/06 10:55:30;;;;;;;120.82;88.07;;;22.20;48.80;;;;;;4812721;54;21764;-29
2021/12/06 11:01:20;;;;;;;123.47;87.30;;;22.20;49.10;;;;;;4805051;54;21477;-33
2021/12/06 11:06:31;;;;;;;121.40;91.60;;;22.30;49.10;;;;;;4824760;54;21076;-28
2021/12/06 11:11:39;;;;;;;123.00;90.10;;;22.20;49.20;;;;;;4796643;54;21501;-29
2021/12/06 11:16:43;;;;;;;121.85;89.78;;;22.30;49.40;;;;;;4823915;54;21494;-27
2021/12/06 11:21:59;;;;;;;126.07;95.20;;;22.30;49.40;;;;;;4827177;54;21051;-30
2021/12/06 11:27:25;;;;;;;129.10;95.95;;;22.30;49.50;;;;;;4802625;54;21031;-31
2021/12/06 11:32:38;;;;;;;128.32;100.35;;;22.30;49.60;;;;;;4826350;54;21032;-27
2021/12/06 11:37:43;;;;;;;137.10;98.05;;;22.30;49.70;;;;;;4818731;54;21012;-31
2021/12/06 11:42:50;;;;;;;134.37;102.12;;;22.30;49.70;;;;;;4796677;54;21004;-31
2021/12/06 11:48:06;;;;;;;135.30;103.40;;;22.30;49.80;;;;;;4794591;58;21498;-28
2021/12/06 11:53:08;;;;;;;133.37;105.20;;;22.40;49.90;;;;;;4826776;54;21012;-26
2021/12/06 11:58:21;;;;;;;136.35;104.38;;;22.40;49.90;;;;;;4807170;54;21663;-30
2021/12/06 12:03:31;;;;;;;134.32;102.22;;;22.40;50.00;;;;;;4828478;54;21032;-26
2021/12/06 12:08:34;;;;;;;143.62;104.97;;;22.40;50.10;;;;;;4824075;54;21024;-28
2021/12/06 12:13:39;;;;;;;135.10;108.20;;;22.40;50.10;;;;;;4818708;54;21618;-33
2021/12/06 12:18:42;;;;;;;148.77;118.07;;;22.40;50.10;;;;;;4853558;54;22181;-31
2021/12/06 12:23:43;;;;;;;145.23;114.12;;;22.40;50.20;;;;;;4794609;58;21612;-27
2021/12/06 12:28:59;;;;;;;149.75;116.82;;;22.40;50.30;;;;;;4809394;54;21982;-27
2021/12/06 12:34:00;;;;;;;149.43;115.13;;;22.40;50.40;;;;;;4799381;54;21118;-31
2021/12/06 12:39:03;;;;;;;153.52;117.95;;;22.40;50.40;;;;;;4808178;54;21095;-31
2021/12/06 12:44:10;;;;;;;155.15;119.80;;;22.40;50.50;;;;;;4816917;54;21561;-27
2021/12/06 12:49:17;;;;;;;157.25;122.70;;;22.50;50.60;;;;;;4795163;58;21031;-26
2021/12/06 12:54:28;;;;;;;;;;;22.50;50.60;;;;;;4842096;54;21024;-28
2021/12/06 13:00:04;;;;;;;157.68;124.20;;;22.50;50.70;;;;;;4805810;54;20322;-31
2021/12/06 13:05:38;;;;;;;156.85;124.53;;;22.50;50.80;;;;;;4793280;54;21561;-29
2021/12/06 13:10:53;;;;;;;168.25;130.48;;;22.50;50.90;;;;;;4795963;54;21143;-30
2021/12/06 13:16:24;;;;;;;169.15;129.25;;;22.50;50.60;;;;;;4815421;54;21601;-26
2021/12/06 13:22:31;;;;;;;174.32;133.25;;;22.50;50.40;;;;;;4798729;54;21465;-28
2021/12/06 13:27:45;;;;;;;172.05;134.90;;;22.40;50.20;;;;;;4794722;58;21011;-32
2021/12/06 13:33:00;;;;;;;173.25;135.15;;;22.50;50.10;;;;;;4800676;54;21028;-29
2021/12/06 13:39:02;;;;;;;182.12;139.65;;;22.50;49.90;;;;;;4830106;54;21553;-28
2021/12/06 13:44:09;;;;;;;182.73;138.62;;;22.50;50.00;;;;;;4805370;54;21438;-31
2021/12/06 13:49:15;;;;;;;179.77;135.67;;;22.50;50.00;;;;;;4799125;54;21096;-32
2021/12/06 13:54:28;;;;;;;173.05;133.52;;;22.50;50.10;;;;;;4848043;54;21012;-26
2021/12/06 13:59:43;;;;;;;178.57;140.65;;;22.50;50.20;;;;;;4798552;54;21004;-32
2021/12/06 14:04:45;;;;;;;176.98;138.65;;;22.50;50.30;;;;;;4794871;58;21647;-27
2021/12/06 14:09:48;;;;;;;179.82;137.00;;;22.50;50.30;;;;;;4799723;54;21000;-27
2021/12/06 14:14:53;;;;;;;177.90;139.02;;;22.60;50.50;;;;;;4793388;54;21020;-27
2021/12/06 14:19:54;;;;;;;176.52;134.93;;;22.60;50.50;;;;;;4805743;54;21473;-27
2021/12/06 14:24:55;;;;;;;170.57;134.12;;;22.60;50.60;;;;;;4839023;54;21474;-33
2021/12/06 14:29:57;;;;;;;166.12;133.20;;;22.60;50.50;;;;;;4814399;54;22230;-30
2021/12/06 14:34:58;;;;;;;175.60;135.60;;;22.60;50.70;;;;;;4821263;54;21040;-28
2021/12/06 14:39:59;;;;;;;179.27;136.70;;;22.60;50.70;;;;;;4806834;54;21057;-28
2021/12/06 14:45:03;;;;;;;181.43;137.35;;;22.60;50.70;;;;;;4834292;54;21462;-29
2021/12/06 14:50:39;;;;;;;171.45;135.05;;;22.70;50.80;;;;;;4821123;54;21491;-26
2021/12/06 14:55:48;;;;;;;175.00;138.55;;;22.70;50.90;;;;;;4865295;54;21478;-28
2021/12/06 15:00:57;;;;;;;184.15;141.25;;;22.70;50.80;;;;;;4804175;54;21537;-31
2021/12/06 15:06:03;;;;;;;176.73;138.48;;;22.70;51.00;;;;;;4794892;58;21003;-25
2021/12/06 15:11:08;;;;;;;174.43;136.27;;;22.70;51.00;;;;;;4802177;54;21557;-27
2021/12/06 15:16:14;;;;;;;174.20;134.93;;;22.70;51.00;;;;;;4818538;54;21569;-26
2021/12/06 15:21:18;;;;;;;177.45;138.82;;;22.70;51.10;;;;;;4817998;54;21048;-29
2021/12/06 15:26:23;;;;;;;174.10;134.68;;;22.70;51.10;;;;;;4829297;54;21541;-30
2021/12/06 15:31:26;;;;;;;171.23;133.80;;;22.70;51.20;;;;;;4838883;54;20988;-26
2021/12/06 15:36:28;;;;;;;176.65;135.65;;;22.70;51.20;;;;;;4800739;54;21047;-29
2021/12/06 15:41:33;;;;;;;183.80;139.40;;;22.70;51.00;;;;;;4794930;54;21107;-35
2021/12/06 15:46:44;;;;;;;177.93;135.70;;;22.70;51.10;;;;;;4805087;54;21083;-26
2021/12/06 15:51:58;;;;;;;179.20;136.48;;;22.70;51.20;;;;;;4804784;54;21039;-28
2021/12/06 15:57:03;;;;;;;166.57;130.65;;;22.60;51.10;;;;;;4803160;54;21474;-26
2021/12/06 16:02:16;;;;;;;173.50;137.88;;;22.70;51.00;;;;;;4793889;54;21566;-35
2021/12/06 16:07:32;;;;;;;184.23;140.70;;;22.60;50.80;;;;;;4794120;58;21007;-34
2021/12/06 16:12:57;;;;;;;189.45;141.02;;;22.50;50.60;;;;;;4813328;54;21994;-29
2021/12/06 16:18:05;;;;;;;181.20;140.45;;;22.50;51.10;;;;;;4800254;54;21023;-34
2021/12/06 16:23:15;;;;;;;194.70;143.20;;;22.40;50.40;;;;;;4803640;54;21525;-29
2021/12/06 16:28:17;;;;;;;184.70;143.10;;;22.40;50.30;;;;;;4801421;54;21039;-26
2021/12/06 16:34:10;;;;;;;182.93;143.15;;;22.40;50.20;;;;;;4794668;58;21500;-28
2021/12/06 16:40:46;;;;;;;184.48;142.85;;;22.30;50.10;;;;;;4847743;54;21098;-27
2021/12/06 16:45:52;;;;;;;181.90;140.80;;;22.30;50.10;;;;;;4805239;54;21103;-26
2021/12/06 16:50:52;;;;;;;184.95;141.50;;;22.30;49.50;;;;;;4807820;54;22044;-33
2021/12/06 16:55:55;;;;;;;183.80;141.27;;;22.20;49.80;;;;;;4817236;54;21060;-32
2021/12/06 17:01:06;;;;;;;183.90;140.50;;;22.20;49.80;;;;;;4802210;54;21012;-36
2021/12/06 17:06:17;;;;;;;185.75;140.50;;;22.20;49.70;;;;;;4865784;54;20999;-34
2021/12/06 17:11:25;;;;;;;178.55;136.57;;;22.20;49.70;;;;;;4803760;54;21585;-29
2021/12/06 17:16:32;;;;;;;182.50;138.93;;;22.20;49.60;;;;;;4819152;54;21563;-27
2021/12/06 17:21:33;;;;;;;186.23;139.90;;;22.10;49.40;;;;;;4811215;54;21594;-29
2021/12/06 17:26:34;;;;;;;181.68;141.88;;;22.10;50.10;;;;;;4812366;54;21283;-32
2021/12/06 17:31:41;;;;;;;181.63;140.37;;;22.10;49.40;;;;;;4795749;55;21040;-35
2021/12/06 17:36:49;;;;;;;176.23;136.35;;;22.10;49.30;;;;;;4819620;54;21110;-27
2021/12/06 17:41:50;;;;;;;180.37;139.35;;;22.10;49.30;;;;;;4816378;54;21031;-32
2021/12/06 17:46:54;;;;;;;185.15;137.82;;;22.10;49.20;;;;;;4882352;54;21008;-26
2021/12/06 17:51:57;;;;;;;177.62;138.90;;;22.00;49.10;;;;;;4800234;54;21079;-31
2021/12/06 17:57:03;;;;;;;179.82;139.10;;;22.00;49.10;;;;;;4808073;54;21617;-28
2021/12/06 18:02:07;;;;;;;176.20;140.60;;;22.00;49.60;;;;;;4841001;54;21090;-27
2021/12/06 18:07:12;;;;;;;184.15;138.85;;;22.00;49.50;;;;;;4795064;55;21000;-29
2021/12/06 18:12:13;;;;;;;176.85;138.90;;;22.00;48.80;;;;;;4829265;54;21558;-26
2021/12/06 18:17:14;;;;;;;174.50;136.10;;;22.00;48.80;;;;;;4795322;58;21554;-29
2021/12/06 18:22:15;;;;;;;174.20;138.70;;;22.00;48.80;;;;;;4807538;54;21011;-26
2021/12/06 18:27:18;;;;;;;176.85;139.62;;;22.00;48.80;;;;;;4842418;54;21011;-28
2021/12/06 18:32:22;;;;;;;174.75;136.20;;;21.90;48.80;;;;;;4823867;54;21991;-30
2021/12/06 18:37:24;;;;;;;173.48;138.25;;;21.90;48.60;;;;;;4833088;54;21150;-29
2021/12/06 18:42:28;;;;;;;178.62;138.60;;;21.90;48.60;;;;;;4808881;54;21147;-26
2021/12/06 18:47:33;;;;;;;172.40;135.35;;;21.90;48.60;;;;;;4829207;54;21565;-27
2021/12/06 18:52:34;;;;;;;176.93;135.68;;;21.90;48.50;;;;;;4812212;54;21126;-31
2021/12/06 18:57:36;;;;;;;176.52;135.30;;;21.90;48.50;;;;;;4796545;54;21059;-28
2021/12/06 19:02:36;;;;;;;172.05;135.65;;;21.90;48.40;;;;;;4820090;54;21145;-29
2021/12/06 19:07:37;;;;;;;167.37;132.40;;;21.90;48.30;;;;;;4796505;54;21065;-28
2021/12/06 19:12:39;;;;;;;164.73;132.23;;;21.90;48.30;;;;;;4796481;54;21055;-29
2021/12/06 19:17:42;;;;;;;163.25;127.87;;;21.90;48.20;;;;;;4820044;54;21070;-27
2021/12/06 19:22:43;;;;;;;165.32;129.60;;;21.90;48.80;;;;;;4795174;58;21549;-28
2021/12/06 19:27:48;;;;;;;167.52;132.23;;;21.90;48.30;;;;;;4800160;54;21059;-29
2021/12/06 19:32:51;;;;;;;154.82;125.95;;;21.90;48.10;;;;;;4810634;54;22264;-27
2021/12/06 19:37:52;;;;;;;161.07;130.50;;;21.90;48.10;;;;;;4810129;54;21111;-26
2021/12/06 19:42:53;;;;;;;163.30;128.55;;;21.90;48.00;;;;;;4861542;54;21110;-29
2021/12/06 19:47:54;;;;;;;157.37;127.15;;;21.80;47.90;;;;;;4808922;54;21098;-27
2021/12/06 19:52:55;;;;;;;159.37;127.00;;;21.80;47.90;;;;;;4795522;58;21052;-30
2021/12/06 19:57:56;;;;;;;159.15;128.60;;;21.90;48.00;;;;;;4796479;55;21743;-27
2021/12/06 20:02:57;;;;;;;148.02;120.37;;;21.80;47.80;;;;;;4803338;54;21056;-28
2021/12/06 20:08:00;;;;;;;155.75;126.35;;;21.80;47.90;;;;;;4795710;55;21608;-25
2021/12/06 20:13:02;;;;;;;154.98;124.28;;;21.80;47.90;;;;;;4828640;54;21573;-31
2021/12/06 20:18:05;;;;;;;150.35;122.82;;;21.80;47.70;;;;;;4808417;54;21079;-33
2021/12/06 20:23:07;;;;;;;153.95;122.20;;;21.80;47.60;;;;;;4805472;54;21008;-26
2021/12/06 20:28:10;;;;;;;144.35;120.57;;;21.80;47.70;;;;;;4796600;58;21004;-28
2021/12/06 20:33:11;;;;;;;151.12;120.78;;;21.80;47.60;;;;;;4813652;54;21056;-31
2021/12/06 20:38:13;;;;;;;143.13;116.50;;;21.80;47.50;;;;;;4799393;54;21190;-29
2021/12/06 20:43:15;;;;;;;142.40;115.80;;;21.80;47.60;;;;;;4813382;54;21004;-31
2021/12/06 20:48:15;;;;;;;148.35;119.40;;;21.80;47.60;;;;;;4799182;54;21039;-32
2021/12/06 20:53:17;;;;;;;139.20;115.43;;;21.80;47.40;;;;;;4794930;55;21087;-28
2021/12/06 20:58:20;;;;;;;147.32;117.13;;;21.80;47.40;;;;;;4837013;54;21012;-28
2021/12/06 21:03:26;;;;;;;139.65;114.80;;;21.80;47.30;;;;;;4796379;54;21036;-29
2021/12/06 21:08:27;;;;;;;138.75;114.12;;;21.80;47.30;;;;;;4815077;54;21532;-30
2021/12/06 21:13:54;;;;;;;137.52;110.65;;;21.80;47.20;;;;;;4814664;54;21035;-29
2021/12/06 21:19:16;;;;;;;137.75;112.62;;;21.80;47.20;;;;;;4817329;54;21623;-33
2021/12/06 21:24:17;;;;;;;127.38;104.82;;;21.80;47.10;;;;;;4815627;54;21015;-26
2021/12/06 21:29:18;;;;;;;131.95;108.55;;;21.80;47.20;;;;;;4827949;54;21012;-26
2021/12/06 21:34:19;;;;;;;133.40;108.78;;;21.70;47.00;;;;;;4835907;54;21478;-29
2021/12/06 21:39:20;;;;;;;128.02;104.18;;;21.80;47.00;;;;;;4799435;54;21454;-28
2021/12/06 21:44:21;;;;;;;128.02;103.55;;;21.70;46.90;;;;;;4803494;54;21012;-26
2021/12/06 21:49:22;;;;;;;131.35;106.28;;;21.70;47.10;;;;;;4816129;54;21518;-28
2021/12/06 21:54:23;;;;;;;126.53;103.65;;;21.70;47.00;;;;;;4844070;54;21072;-31
2021/12/06 21:59:26;;;;;;;122.68;101.50;;;21.70;46.90;;;;;;4795738;58;21569;-26
2021/12/06 22:04:28;;;;;;;121.50;103.05;;;21.70;46.80;;;;;;4814600;54;21513;-26
2021/12/06 22:09:29;;;;;;;123.82;102.07;;;21.70;46.80;;;;;;4796254;54;22061;-26
2021/12/06 22:14:30;;;;;;;118.32;99.22;;;21.70;46.80;;;;;;4813691;54;21151;-28
2021/12/06 22:19:33;;;;;;;118.57;99.53;;;21.70;46.60;;;;;;4805359;54;21094;-27
2021/12/06 22:24:34;;;;;;;118.35;96.47;;;21.70;46.60;;;;;;4807084;54;21490;-32
2021/12/06 22:29:35;;;;;;;116.97;96.87;;;21.70;46.50;;;;;;4794888;58;21083;-31
2021/12/06 22:34:36;;;;;;;117.05;96.22;;;21.70;46.60;;;;;;4826119;54;21068;-27
2021/12/06 22:39:37;;;;;;;118.78;97.45;;;21.70;46.40;;;;;;4799735;54;21055;-26
2021/12/06 22:44:37;;;;;;;115.20;94.20;;;21.70;46.50;;;;;;4813354;54;21171;-27
2021/12/06 22:49:40;;;;;;;112.53;92.62;;;21.70;46.50;;;;;;4819954;54;21090;-28
2021/12/06 22:54:41;;;;;;;112.40;91.45;;;21.70;46.30;;;;;;4810791;54;21549;-28
2021/12/06 22:59:42;;;;;;;109.20;92.70;;;21.70;46.30;;;;;;4908613;54;21019;-26
2021/12/06 23:04:45;;;;;;;108.12;87.60;;;21.70;46.30;;;;;;4800267;54;21019;-28
2021/12/06 23:09:47;;;;;;;108.63;88.80;;;21.70;46.30;;;;;;4801888;54;21525;-26
2021/12/06 23:14:49;;;;;;;106.60;89.57;;;21.70;46.80;;;;;;4826573;54;21530;-26
2021/12/06 23:19:49;;;;;;;104.00;86.43;;;21.70;46.20;;;;;;4802124;54;21530;-28
2021/12/06 23:24:51;;;;;;;98.80;83.78;;;21.70;46.10;;;;;;4823130;54;21003;-30
2021/12/06 23:29:51;;;;;;;100.45;84.70;;;21.70;46.10;;;;;;4840630;54;21012;-29
2021/12/06 23:34:57;;;;;;;102.60;85.60;;;21.60;46.00;;;;;;4806845;54;21040;-31
2021/12/06 23:40:28;;;;;;;100.90;84.95;;;21.70;46.00;;;;;;4800498;54;21625;-27
2021/12/06 23:50:48;;;;;;;98.60;82.62;;;21.70;46.00;;;;;;4794774;54;21091;-34
2021/12/06 23:55:50;;;;;;;97.85;80.07;;;21.60;45.80;;;;;;4798889;54;21083;-32
